Saint Paul, Kansas
Current Conditions -  °F | °C
As of 5:52 PM on Saturday 22 Nov 2014 (Local Time) from KCNU Reporting Station
Overcast Overcast  
Wind Chill: 54°   Ceiling: 1400
Heat Index: 54°   Visibility: 10mi
Dew Point: 52°   Wind: 10mph
Humidity: 93%   Direction: 170°S
Pressure: 29.8"   Gusts: NA
Location:  37.52°N, 95.17°W
Report Text: KCNU 222352Z AUTO 17009KT 10SM OVC014 12/11 A2980 RMK AO2 SLP088 T01220111 10150 20122 55010
Loading
Personal Weather Stations






























Interactive Weather Map New forecast layout! Learn more

10-Day Weather Forecast

Advertisements
Track Severe Weather on mobile